sensor_id;sensor_type;location;lat;lon;timestamp;P1;durP1;ratioP1;P2;durP2;ratioP2
12719;SDS011;6424;48.520;11.228;2024-01-15T00:02:37;27.53;;;15.57;;
12719;SDS011;6424;48.520;11.228;2024-01-15T00:05:21;27.87;;;15.47;;
12719;SDS011;6424;48.520;11.228;2024-01-15T00:08:05;28.17;;;15.63;;
12719;SDS011;6424;48.520;11.228;2024-01-15T00:10:50;28.07;;;15.70;;
12719;SDS011;6424;48.520;11.228;2024-01-15T00:13:35;28.03;;;14.93;;
12719;SDS011;6424;48.520;11.228;2024-01-15T00:16:19;31.87;;;16.10;;
12719;SDS011;6424;48.520;11.228;2024-01-15T00:19:03;26.97;;;16.40;;
12719;SDS011;6424;48.520;11.228;2024-01-15T00:21:47;30.67;;;16.33;;
12719;SDS011;6424;48.520;11.228;2024-01-15T00:24:32;32.27;;;17.97;;
12719;SDS011;6424;48.520;11.228;2024-01-15T00:27:16;29.70;;;17.90;;
12719;SDS011;6424;48.520;11.228;2024-01-15T00:30:00;27.40;;;16.03;;
12719;SDS011;6424;48.520;11.228;2024-01-15T00:32:45;29.03;;;15.83;;
12719;SDS011;6424;48.520;11.228;2024-01-15T00:35:29;28.63;;;15.73;;
12719;SDS011;6424;48.520;11.228;2024-01-15T00:38:14;27.13;;;15.80;;
12719;SDS011;6424;48.520;11.228;2024-01-15T00:41:00;29.83;;;16.00;;
12719;SDS011;6424;48.520;11.228;2024-01-15T00:43:45;27.13;;;15.03;;
12719;SDS011;6424;48.520;11.228;2024-01-15T00:46:30;27.60;;;14.60;;
12719;SDS011;6424;48.520;11.228;2024-01-15T00:49:15;27.23;;;14.17;;
12719;SDS011;6424;48.520;11.228;2024-01-15T00:51:59;28.30;;;14.83;;
12719;SDS011;6424;48.520;11.228;2024-01-15T00:54:44;25.57;;;13.93;;
12719;SDS011;6424;48.520;11.228;2024-01-15T00:57:28;27.00;;;15.70;;
12719;SDS011;6424;48.520;11.228;2024-01-15T01:00:12;25.80;;;13.67;;
12719;SDS011;6424;48.520;11.228;2024-01-15T01:02:57;25.63;;;13.37;;
12719;SDS011;6424;48.520;11.228;2024-01-15T01:05:41;29.97;;;14.50;;
12719;SDS011;6424;48.520;11.228;2024-01-15T01:08:25;26.57;;;13.77;;
12719;SDS011;6424;48.520;11.228;2024-01-15T01:11:13;24.97;;;15.03;;
12719;SDS011;6424;48.520;11.228;2024-01-15T01:13:58;27.60;;;14.03;;
12719;SDS011;6424;48.520;11.228;2024-01-15T01:16:43;30.37;;;16.00;;
12719;SDS011;6424;48.520;11.228;2024-01-15T01:19:27;27.80;;;13.70;;
12719;SDS011;6424;48.520;11.228;2024-01-15T01:22:11;27.47;;;14.83;;
12719;SDS011;6424;48.520;11.228;2024-01-15T01:24:55;28.47;;;14.90;;
12719;SDS011;6424;48.520;11.228;2024-01-15T01:27:40;30.73;;;15.40;;
12719;SDS011;6424;48.520;11.228;2024-01-15T01:30:24;27.83;;;15.57;;
12719;SDS011;6424;48.520;11.228;2024-01-15T01:33:09;29.87;;;15.17;;
12719;SDS011;6424;48.520;11.228;2024-01-15T01:35:53;31.70;;;16.67;;
12719;SDS011;6424;48.520;11.228;2024-01-15T01:38:37;27.97;;;15.47;;
12719;SDS011;6424;48.520;11.228;2024-01-15T01:41:22;28.73;;;15.30;;
12719;SDS011;6424;48.520;11.228;2024-01-15T01:44:07;33.70;;;16.30;;
12719;SDS011;6424;48.520;11.228;2024-01-15T01:46:52;28.20;;;16.07;;
12719;SDS011;6424;48.520;11.228;2024-01-15T01:49:37;27.87;;;15.10;;
12719;SDS011;6424;48.520;11.228;2024-01-15T01:52:22;26.77;;;14.33;;
12719;SDS011;6424;48.520;11.228;2024-01-15T01:55:07;27.43;;;14.70;;
12719;SDS011;6424;48.520;11.228;2024-01-15T01:57:54;23.60;;;14.77;;
12719;SDS011;6424;48.520;11.228;2024-01-15T02:00:39;25.97;;;14.23;;
12719;SDS011;6424;48.520;11.228;2024-01-15T02:03:24;27.10;;;13.97;;
12719;SDS011;6424;48.520;11.228;2024-01-15T02:06:10;24.17;;;12.20;;
12719;SDS011;6424;48.520;11.228;2024-01-15T02:08:54;23.53;;;13.17;;
12719;SDS011;6424;48.520;11.228;2024-01-15T02:11:39;25.87;;;12.97;;
12719;SDS011;6424;48.520;11.228;2024-01-15T02:14:24;24.87;;;13.23;;
12719;SDS011;6424;48.520;11.228;2024-01-15T02:17:09;23.30;;;13.27;;
12719;SDS011;6424;48.520;11.228;2024-01-15T02:19:54;22.13;;;12.17;;
12719;SDS011;6424;48.520;11.228;2024-01-15T02:22:39;23.20;;;13.13;;
12719;SDS011;6424;48.520;11.228;2024-01-15T02:25:23;24.73;;;12.67;;
12719;SDS011;6424;48.520;11.228;2024-01-15T02:28:11;24.13;;;12.60;;
12719;SDS011;6424;48.520;11.228;2024-01-15T02:30:56;22.73;;;12.20;;
12719;SDS011;6424;48.520;11.228;2024-01-15T02:33:41;23.27;;;12.87;;
12719;SDS011;6424;48.520;11.228;2024-01-15T02:36:26;22.33;;;12.97;;
12719;SDS011;6424;48.520;11.228;2024-01-15T02:39:10;21.53;;;11.63;;
12719;SDS011;6424;48.520;11.228;2024-01-15T02:41:54;20.17;;;11.37;;
12719;SDS011;6424;48.520;11.228;2024-01-15T02:44:41;20.77;;;11.97;;
12719;SDS011;6424;48.520;11.228;2024-01-15T02:47:25;23.47;;;12.13;;
12719;SDS011;6424;48.520;11.228;2024-01-15T02:50:09;25.77;;;12.60;;
12719;SDS011;6424;48.520;11.228;2024-01-15T02:52:54;23.03;;;11.40;;
12719;SDS011;6424;48.520;11.228;2024-01-15T02:55:38;24.80;;;13.13;;
12719;SDS011;6424;48.520;11.228;2024-01-15T02:58:22;20.80;;;11.93;;
12719;SDS011;6424;48.520;11.228;2024-01-15T03:01:07;20.97;;;11.17;;
12719;SDS011;6424;48.520;11.228;2024-01-15T03:03:51;21.50;;;10.93;;
12719;SDS011;6424;48.520;11.228;2024-01-15T03:06:36;18.77;;;10.60;;
12719;SDS011;6424;48.520;11.228;2024-01-15T03:09:20;16.83;;;9.43;;
12719;SDS011;6424;48.520;11.228;2024-01-15T03:12:04;16.20;;;9.97;;
12719;SDS011;6424;48.520;11.228;2024-01-15T03:14:49;18.43;;;10.40;;
12719;SDS011;6424;48.520;11.228;2024-01-15T03:17:34;15.60;;;9.17;;
12719;SDS011;6424;48.520;11.228;2024-01-15T03:20:18;17.80;;;9.70;;
12719;SDS011;6424;48.520;11.228;2024-01-15T03:23:02;17.40;;;9.23;;
12719;SDS011;6424;48.520;11.228;2024-01-15T03:25:46;16.27;;;7.93;;
12719;SDS011;6424;48.520;11.228;2024-01-15T03:28:30;16.50;;;8.10;;
12719;SDS011;6424;48.520;11.228;2024-01-15T03:31:15;13.67;;;7.97;;
12719;SDS011;6424;48.520;11.228;2024-01-15T03:33:59;11.83;;;7.33;;
12719;SDS011;6424;48.520;11.228;2024-01-15T03:36:44;10.50;;;6.90;;
12719;SDS011;6424;48.520;11.228;2024-01-15T03:39:28;12.90;;;7.63;;
12719;SDS011;6424;48.520;11.228;2024-01-15T03:42:13;14.83;;;7.20;;
12719;SDS011;6424;48.520;11.228;2024-01-15T03:44:58;13.27;;;7.10;;
12719;SDS011;6424;48.520;11.228;2024-01-15T03:47:42;11.10;;;6.93;;
12719;SDS011;6424;48.520;11.228;2024-01-15T03:50:26;13.83;;;7.40;;
12719;SDS011;6424;48.520;11.228;2024-01-15T03:53:11;11.77;;;6.57;;
12719;SDS011;6424;48.520;11.228;2024-01-15T03:55:55;10.43;;;6.67;;
12719;SDS011;6424;48.520;11.228;2024-01-15T03:58:39;12.00;;;7.00;;
12719;SDS011;6424;48.520;11.228;2024-01-15T04:01:23;9.60;;;6.50;;
12719;SDS011;6424;48.520;11.228;2024-01-15T04:04:07;10.20;;;6.73;;
12719;SDS011;6424;48.520;11.228;2024-01-15T04:06:51;12.77;;;7.40;;
12719;SDS011;6424;48.520;11.228;2024-01-15T04:09:36;12.10;;;6.93;;
12719;SDS011;6424;48.520;11.228;2024-01-15T04:12:20;11.23;;;6.40;;
12719;SDS011;6424;48.520;11.228;2024-01-15T04:15:04;12.27;;;7.23;;
12719;SDS011;6424;48.520;11.228;2024-01-15T04:17:48;13.83;;;7.23;;
12719;SDS011;6424;48.520;11.228;2024-01-15T04:20:32;10.00;;;6.13;;
12719;SDS011;6424;48.520;11.228;2024-01-15T04:23:17;9.90;;;6.03;;
12719;SDS011;6424;48.520;11.228;2024-01-15T04:26:01;11.70;;;5.90;;
12719;SDS011;6424;48.520;11.228;2024-01-15T04:28:45;9.70;;;6.27;;
12719;SDS011;6424;48.520;11.228;2024-01-15T04:31:29;10.23;;;5.70;;
12719;SDS011;6424;48.520;11.228;2024-01-15T04:34:14;10.67;;;6.00;;
12719;SDS011;6424;48.520;11.228;2024-01-15T04:36:58;9.83;;;6.77;;
12719;SDS011;6424;48.520;11.228;2024-01-15T04:39:42;14.27;;;6.03;;
12719;SDS011;6424;48.520;11.228;2024-01-15T04:42:26;8.27;;;5.57;;
12719;SDS011;6424;48.520;11.228;2024-01-15T04:45:11;8.93;;;5.50;;
12719;SDS011;6424;48.520;11.228;2024-01-15T04:47:55;11.03;;;6.37;;
12719;SDS011;6424;48.520;11.228;2024-01-15T04:50:41;9.63;;;5.47;;
12719;SDS011;6424;48.520;11.228;2024-01-15T04:53:25;10.10;;;6.07;;
12719;SDS011;6424;48.520;11.228;2024-01-15T04:56:09;10.40;;;6.23;;
12719;SDS011;6424;48.520;11.228;2024-01-15T04:58:53;9.63;;;6.23;;
12719;SDS011;6424;48.520;11.228;2024-01-15T05:01:38;7.30;;;5.20;;
12719;SDS011;6424;48.520;11.228;2024-01-15T05:04:22;9.10;;;5.47;;
12719;SDS011;6424;48.520;11.228;2024-01-15T05:07:06;10.27;;;5.47;;
12719;SDS011;6424;48.520;11.228;2024-01-15T05:09:52;9.70;;;5.57;;
12719;SDS011;6424;48.520;11.228;2024-01-15T05:12:36;8.13;;;5.20;;
12719;SDS011;6424;48.520;11.228;2024-01-15T05:15:21;9.43;;;5.27;;
12719;SDS011;6424;48.520;11.228;2024-01-15T05:18:05;9.10;;;5.80;;
12719;SDS011;6424;48.520;11.228;2024-01-15T05:20:50;9.37;;;5.07;;
12719;SDS011;6424;48.520;11.228;2024-01-15T05:23:36;8.30;;;5.60;;
12719;SDS011;6424;48.520;11.228;2024-01-15T05:26:20;7.27;;;5.27;;
12719;SDS011;6424;48.520;11.228;2024-01-15T05:29:04;9.97;;;5.80;;
12719;SDS011;6424;48.520;11.228;2024-01-15T05:31:48;10.30;;;6.97;;
12719;SDS011;6424;48.520;11.228;2024-01-15T05:34:32;13.57;;;8.50;;
12719;SDS011;6424;48.520;11.228;2024-01-15T05:37:16;14.13;;;8.67;;
12719;SDS011;6424;48.520;11.228;2024-01-15T05:40:00;10.70;;;6.47;;
12719;SDS011;6424;48.520;11.228;2024-01-15T05:42:44;13.13;;;9.03;;
12719;SDS011;6424;48.520;11.228;2024-01-15T05:45:30;13.03;;;8.67;;
12719;SDS011;6424;48.520;11.228;2024-01-15T05:48:14;12.37;;;7.57;;
12719;SDS011;6424;48.520;11.228;2024-01-15T05:50:58;11.60;;;7.53;;
12719;SDS011;6424;48.520;11.228;2024-01-15T05:53:42;8.47;;;6.57;;
12719;SDS011;6424;48.520;11.228;2024-01-15T05:56:28;10.73;;;6.83;;
12719;SDS011;6424;48.520;11.228;2024-01-15T05:59:12;16.77;;;10.33;;
12719;SDS011;6424;48.520;11.228;2024-01-15T06:01:57;10.63;;;6.33;;
12719;SDS011;6424;48.520;11.228;2024-01-15T06:04:41;14.43;;;8.50;;
12719;SDS011;6424;48.520;11.228;2024-01-15T06:07:25;12.53;;;7.33;;
12719;SDS011;6424;48.520;11.228;2024-01-15T06:10:09;10.93;;;7.43;;
12719;SDS011;6424;48.520;11.228;2024-01-15T06:12:53;9.90;;;5.73;;
12719;SDS011;6424;48.520;11.228;2024-01-15T06:15:37;10.47;;;6.67;;
12719;SDS011;6424;48.520;11.228;2024-01-15T06:18:22;11.17;;;5.53;;
12719;SDS011;6424;48.520;11.228;2024-01-15T06:21:06;6.77;;;5.20;;
12719;SDS011;6424;48.520;11.228;2024-01-15T06:23:50;8.57;;;5.60;;
12719;SDS011;6424;48.520;11.228;2024-01-15T06:26:35;9.77;;;5.10;;
12719;SDS011;6424;48.520;11.228;2024-01-15T06:29:19;7.03;;;5.00;;
12719;SDS011;6424;48.520;11.228;2024-01-15T06:32:04;9.33;;;5.47;;
12719;SDS011;6424;48.520;11.228;2024-01-15T06:34:48;7.60;;;5.40;;
12719;SDS011;6424;48.520;11.228;2024-01-15T06:37:32;10.07;;;5.27;;
12719;SDS011;6424;48.520;11.228;2024-01-15T06:40:16;9.03;;;5.03;;
12719;SDS011;6424;48.520;11.228;2024-01-15T06:43:01;7.80;;;5.27;;
12719;SDS011;6424;48.520;11.228;2024-01-15T06:45:45;8.67;;;5.70;;
12719;SDS011;6424;48.520;11.228;2024-01-15T06:48:30;12.70;;;6.63;;
12719;SDS011;6424;48.520;11.228;2024-01-15T06:51:15;7.90;;;5.67;;
12719;SDS011;6424;48.520;11.228;2024-01-15T06:53:59;12.30;;;6.83;;
12719;SDS011;6424;48.520;11.228;2024-01-15T06:56:43;10.10;;;6.07;;
12719;SDS011;6424;48.520;11.228;2024-01-15T06:59:28;10.70;;;6.53;;
12719;SDS011;6424;48.520;11.228;2024-01-15T07:02:12;9.23;;;5.60;;
12719;SDS011;6424;48.520;11.228;2024-01-15T07:04:56;9.77;;;5.60;;
12719;SDS011;6424;48.520;11.228;2024-01-15T07:07:40;6.70;;;4.83;;
12719;SDS011;6424;48.520;11.228;2024-01-15T07:10:24;6.73;;;4.80;;
12719;SDS011;6424;48.520;11.228;2024-01-15T07:13:10;7.23;;;4.43;;
12719;SDS011;6424;48.520;11.228;2024-01-15T07:15:54;7.47;;;4.70;;
12719;SDS011;6424;48.520;11.228;2024-01-15T07:18:38;6.57;;;3.90;;
12719;SDS011;6424;48.520;11.228;2024-01-15T07:21:22;6.87;;;4.73;;
12719;SDS011;6424;48.520;11.228;2024-01-15T07:24:06;8.37;;;4.23;;
12719;SDS011;6424;48.520;11.228;2024-01-15T07:26:51;6.17;;;3.73;;
12719;SDS011;6424;48.520;11.228;2024-01-15T07:29:35;9.10;;;4.77;;
12719;SDS011;6424;48.520;11.228;2024-01-15T07:32:22;7.33;;;4.90;;
12719;SDS011;6424;48.520;11.228;2024-01-15T07:35:06;7.53;;;5.07;;
12719;SDS011;6424;48.520;11.228;2024-01-15T07:37:51;7.87;;;4.87;;
12719;SDS011;6424;48.520;11.228;2024-01-15T07:40:35;5.97;;;4.33;;
12719;SDS011;6424;48.520;11.228;2024-01-15T07:43:20;7.63;;;4.37;;
12719;SDS011;6424;48.520;11.228;2024-01-15T07:46:06;8.47;;;4.63;;
12719;SDS011;6424;48.520;11.228;2024-01-15T07:48:51;6.40;;;4.30;;
12719;SDS011;6424;48.520;11.228;2024-01-15T07:51:39;7.10;;;4.20;;
12719;SDS011;6424;48.520;11.228;2024-01-15T07:54:24;7.43;;;4.53;;
12719;SDS011;6424;48.520;11.228;2024-01-15T07:57:08;7.73;;;3.93;;
12719;SDS011;6424;48.520;11.228;2024-01-15T07:59:54;7.20;;;4.17;;
12719;SDS011;6424;48.520;11.228;2024-01-15T08:02:38;11.10;;;6.87;;
12719;SDS011;6424;48.520;11.228;2024-01-15T08:05:22;18.07;;;9.20;;
12719;SDS011;6424;48.520;11.228;2024-01-15T08:08:07;10.80;;;7.00;;
12719;SDS011;6424;48.520;11.228;2024-01-15T08:10:54;7.50;;;5.23;;
12719;SDS011;6424;48.520;11.228;2024-01-15T08:13:38;8.23;;;5.10;;
12719;SDS011;6424;48.520;11.228;2024-01-15T08:16:22;7.03;;;4.50;;
12719;SDS011;6424;48.520;11.228;2024-01-15T08:19:08;6.77;;;4.73;;
12719;SDS011;6424;48.520;11.228;2024-01-15T08:21:52;6.63;;;4.20;;
12719;SDS011;6424;48.520;11.228;2024-01-15T08:24:37;6.47;;;4.20;;
12719;SDS011;6424;48.520;11.228;2024-01-15T08:27:21;7.63;;;4.73;;
12719;SDS011;6424;48.520;11.228;2024-01-15T08:30:05;6.37;;;4.27;;
12719;SDS011;6424;48.520;11.228;2024-01-15T08:32:50;5.53;;;3.87;;
12719;SDS011;6424;48.520;11.228;2024-01-15T08:35:34;7.00;;;3.80;;
12719;SDS011;6424;48.520;11.228;2024-01-15T08:38:18;6.40;;;3.90;;
12719;SDS011;6424;48.520;11.228;2024-01-15T08:41:03;5.10;;;3.30;;
12719;SDS011;6424;48.520;11.228;2024-01-15T08:43:47;5.67;;;3.90;;
12719;SDS011;6424;48.520;11.228;2024-01-15T08:46:32;6.30;;;3.87;;
12719;SDS011;6424;48.520;11.228;2024-01-15T08:49:16;4.03;;;3.03;;
12719;SDS011;6424;48.520;11.228;2024-01-15T08:52:00;5.70;;;3.47;;
12719;SDS011;6424;48.520;11.228;2024-01-15T08:54:45;4.27;;;3.20;;
12719;SDS011;6424;48.520;11.228;2024-01-15T08:57:29;8.20;;;3.90;;
12719;SDS011;6424;48.520;11.228;2024-01-15T09:00:14;5.57;;;3.20;;
12719;SDS011;6424;48.520;11.228;2024-01-15T09:02:58;5.50;;;3.20;;
12719;SDS011;6424;48.520;11.228;2024-01-15T09:05:42;5.33;;;3.63;;
12719;SDS011;6424;48.520;11.228;2024-01-15T09:08:27;7.47;;;3.50;;
12719;SDS011;6424;48.520;11.228;2024-01-15T09:11:11;4.60;;;3.30;;
12719;SDS011;6424;48.520;11.228;2024-01-15T09:13:56;5.00;;;3.60;;
12719;SDS011;6424;48.520;11.228;2024-01-15T09:16:40;4.27;;;3.23;;
12719;SDS011;6424;48.520;11.228;2024-01-15T09:19:24;5.17;;;3.20;;
12719;SDS011;6424;48.520;11.228;2024-01-15T09:22:08;9.67;;;3.87;;
12719;SDS011;6424;48.520;11.228;2024-01-15T09:24:53;8.37;;;3.60;;
12719;SDS011;6424;48.520;11.228;2024-01-15T09:27:38;5.10;;;3.33;;
12719;SDS011;6424;48.520;11.228;2024-01-15T09:30:22;6.30;;;3.50;;
12719;SDS011;6424;48.520;11.228;2024-01-15T09:33:06;5.20;;;3.40;;
12719;SDS011;6424;48.520;11.228;2024-01-15T09:35:51;7.00;;;4.27;;
12719;SDS011;6424;48.520;11.228;2024-01-15T09:38:35;5.03;;;3.30;;
12719;SDS011;6424;48.520;11.228;2024-01-15T09:41:20;5.30;;;3.50;;
12719;SDS011;6424;48.520;11.228;2024-01-15T09:44:04;4.73;;;3.40;;
12719;SDS011;6424;48.520;11.228;2024-01-15T09:46:51;4.40;;;3.30;;
12719;SDS011;6424;48.520;11.228;2024-01-15T09:49:35;6.27;;;3.50;;
12719;SDS011;6424;48.520;11.228;2024-01-15T09:52:21;5.93;;;3.40;;
12719;SDS011;6424;48.520;11.228;2024-01-15T09:55:06;5.37;;;3.00;;
12719;SDS011;6424;48.520;11.228;2024-01-15T09:57:52;6.90;;;3.67;;
12719;SDS011;6424;48.520;11.228;2024-01-15T10:00:39;5.20;;;3.40;;
12719;SDS011;6424;48.520;11.228;2024-01-15T10:03:27;5.40;;;3.03;;
12719;SDS011;6424;48.520;11.228;2024-01-15T10:06:15;6.83;;;2.73;;
12719;SDS011;6424;48.520;11.228;2024-01-15T10:09:01;4.83;;;3.50;;
12719;SDS011;6424;48.520;11.228;2024-01-15T10:11:46;5.87;;;3.10;;
12719;SDS011;6424;48.520;11.228;2024-01-15T10:14:31;3.87;;;2.70;;
12719;SDS011;6424;48.520;11.228;2024-01-15T10:17:16;6.43;;;4.00;;
12719;SDS011;6424;48.520;11.228;2024-01-15T10:20:00;5.77;;;3.73;;
12719;SDS011;6424;48.520;11.228;2024-01-15T10:22:45;4.47;;;2.73;;
12719;SDS011;6424;48.520;11.228;2024-01-15T10:25:30;7.90;;;3.73;;
12719;SDS011;6424;48.520;11.228;2024-01-15T10:28:14;7.30;;;5.90;;
12719;SDS011;6424;48.520;11.228;2024-01-15T10:30:59;5.50;;;4.80;;
12719;SDS011;6424;48.520;11.228;2024-01-15T10:33:43;6.67;;;4.83;;
12719;SDS011;6424;48.520;11.228;2024-01-15T10:36:27;6.13;;;5.20;;
12719;SDS011;6424;48.520;11.228;2024-01-15T10:39:14;7.47;;;4.27;;
12719;SDS011;6424;48.520;11.228;2024-01-15T10:41:58;3.63;;;2.73;;
12719;SDS011;6424;48.520;11.228;2024-01-15T10:44:42;7.43;;;3.70;;
12719;SDS011;6424;48.520;11.228;2024-01-15T10:47:27;4.60;;;3.47;;
12719;SDS011;6424;48.520;11.228;2024-01-15T10:50:12;7.00;;;3.27;;
12719;SDS011;6424;48.520;11.228;2024-01-15T10:52:56;3.07;;;2.27;;
12719;SDS011;6424;48.520;11.228;2024-01-15T10:55:41;1.90;;;1.70;;
12719;SDS011;6424;48.520;11.228;2024-01-15T10:58:26;4.97;;;3.10;;
12719;SDS011;6424;48.520;11.228;2024-01-15T11:01:14;3.77;;;2.67;;
12719;SDS011;6424;48.520;11.228;2024-01-15T11:04:00;6.87;;;3.07;;
12719;SDS011;6424;48.520;11.228;2024-01-15T11:06:45;3.63;;;2.37;;
12719;SDS011;6424;48.520;11.228;2024-01-15T11:09:31;8.63;;;4.00;;
12719;SDS011;6424;48.520;11.228;2024-01-15T11:12:16;2.60;;;1.63;;
12719;SDS011;6424;48.520;11.228;2024-01-15T11:15:02;4.13;;;1.87;;
12719;SDS011;6424;48.520;11.228;2024-01-15T11:17:59;5.13;;;2.00;;
12719;SDS011;6424;48.520;11.228;2024-01-15T11:21:19;3.90;;;2.03;;
12719;SDS011;6424;48.520;11.228;2024-01-15T11:24:01;2.97;;;1.93;;
12719;SDS011;6424;48.520;11.228;2024-01-15T11:26:46;2.43;;;1.73;;
12719;SDS011;6424;48.520;11.228;2024-01-15T11:29:32;2.07;;;1.40;;
12719;SDS011;6424;48.520;11.228;2024-01-15T11:32:18;2.63;;;1.97;;
12719;SDS011;6424;48.520;11.228;2024-01-15T11:35:15;5.70;;;2.17;;
12719;SDS011;6424;48.520;11.228;2024-01-15T11:38:00;2.83;;;1.90;;
12719;SDS011;6424;48.520;11.228;2024-01-15T11:40:45;3.90;;;1.40;;
12719;SDS011;6424;48.520;11.228;2024-01-15T11:43:31;2.90;;;1.67;;
12719;SDS011;6424;48.520;11.228;2024-01-15T11:46:17;3.07;;;1.93;;
12719;SDS011;6424;48.520;11.228;2024-01-15T11:49:03;4.07;;;1.67;;
12719;SDS011;6424;48.520;11.228;2024-01-15T11:51:49;1.93;;;1.50;;
12719;SDS011;6424;48.520;11.228;2024-01-15T11:54:37;3.07;;;1.63;;
12719;SDS011;6424;48.520;11.228;2024-01-15T11:57:33;2.60;;;1.80;;
12719;SDS011;6424;48.520;11.228;2024-01-15T12:00:39;2.23;;;1.83;;
12719;SDS011;6424;48.520;11.228;2024-01-15T12:03:25;5.47;;;2.57;;
12719;SDS011;6424;48.520;11.228;2024-01-15T12:06:10;2.70;;;2.10;;
12719;SDS011;6424;48.520;11.228;2024-01-15T12:09:07;4.83;;;2.50;;
12719;SDS011;6424;48.520;11.228;2024-01-15T12:11:54;4.03;;;2.67;;
12719;SDS011;6424;48.520;11.228;2024-01-15T12:14:49;20.83;;;11.33;;
12719;SDS011;6424;48.520;11.228;2024-01-15T12:17:33;26.23;;;16.57;;
12719;SDS011;6424;48.520;11.228;2024-01-15T12:20:18;6.93;;;6.30;;
12719;SDS011;6424;48.520;11.228;2024-01-15T12:23:03;3.27;;;2.63;;
12719;SDS011;6424;48.520;11.228;2024-01-15T12:25:47;2.47;;;1.93;;
12719;SDS011;6424;48.520;11.228;2024-01-15T12:28:32;3.57;;;2.10;;
12719;SDS011;6424;48.520;11.228;2024-01-15T12:31:16;2.70;;;1.90;;
12719;SDS011;6424;48.520;11.228;2024-01-15T12:34:02;2.50;;;2.00;;
12719;SDS011;6424;48.520;11.228;2024-01-15T12:36:47;2.97;;;2.37;;
12719;SDS011;6424;48.520;11.228;2024-01-15T12:39:31;2.47;;;1.70;;
12719;SDS011;6424;48.520;11.228;2024-01-15T12:42:18;2.43;;;1.83;;
12719;SDS011;6424;48.520;11.228;2024-01-15T12:45:03;1.90;;;1.43;;
12719;SDS011;6424;48.520;11.228;2024-01-15T12:47:49;2.23;;;1.73;;
12719;SDS011;6424;48.520;11.228;2024-01-15T12:50:35;3.97;;;1.87;;
12719;SDS011;6424;48.520;11.228;2024-01-15T12:53:19;3.00;;;2.40;;
12719;SDS011;6424;48.520;11.228;2024-01-15T12:56:03;3.77;;;2.30;;
12719;SDS011;6424;48.520;11.228;2024-01-15T12:58:47;3.50;;;3.10;;
12719;SDS011;6424;48.520;11.228;2024-01-15T13:01:31;3.03;;;1.87;;
12719;SDS011;6424;48.520;11.228;2024-01-15T13:04:22;4.43;;;2.70;;
12719;SDS011;6424;48.520;11.228;2024-01-15T13:07:08;13.90;;;8.17;;
12719;SDS011;6424;48.520;11.228;2024-01-15T13:09:53;4.50;;;3.17;;
12719;SDS011;6424;48.520;11.228;2024-01-15T13:12:37;4.77;;;3.10;;
12719;SDS011;6424;48.520;11.228;2024-01-15T13:15:22;2.83;;;2.33;;
12719;SDS011;6424;48.520;11.228;2024-01-15T13:18:06;2.60;;;2.27;;
12719;SDS011;6424;48.520;11.228;2024-01-15T13:20:51;2.13;;;1.93;;
12719;SDS011;6424;48.520;11.228;2024-01-15T13:23:36;3.10;;;2.53;;
12719;SDS011;6424;48.520;11.228;2024-01-15T13:26:21;3.67;;;2.40;;
12719;SDS011;6424;48.520;11.228;2024-01-15T13:29:05;2.77;;;2.43;;
12719;SDS011;6424;48.520;11.228;2024-01-15T13:31:50;5.57;;;2.53;;
12719;SDS011;6424;48.520;11.228;2024-01-15T13:34:34;3.60;;;2.80;;
12719;SDS011;6424;48.520;11.228;2024-01-15T13:37:19;3.63;;;2.60;;
12719;SDS011;6424;48.520;11.228;2024-01-15T13:40:03;4.13;;;2.97;;
12719;SDS011;6424;48.520;11.228;2024-01-15T13:42:49;2.77;;;2.20;;
12719;SDS011;6424;48.520;11.228;2024-01-15T13:45:36;5.27;;;3.30;;
12719;SDS011;6424;48.520;11.228;2024-01-15T13:48:21;3.70;;;3.27;;
12719;SDS011;6424;48.520;11.228;2024-01-15T13:51:05;4.47;;;3.40;;
12719;SDS011;6424;48.520;11.228;2024-01-15T13:53:50;5.63;;;4.17;;
12719;SDS011;6424;48.520;11.228;2024-01-15T13:56:34;3.33;;;2.73;;
12719;SDS011;6424;48.520;11.228;2024-01-15T13:59:19;3.53;;;3.20;;
12719;SDS011;6424;48.520;11.228;2024-01-15T14:02:03;6.20;;;3.90;;
12719;SDS011;6424;48.520;11.228;2024-01-15T14:04:48;4.50;;;3.87;;
12719;SDS011;6424;48.520;11.228;2024-01-15T14:07:32;5.43;;;3.43;;
12719;SDS011;6424;48.520;11.228;2024-01-15T14:10:17;4.73;;;4.10;;
12719;SDS011;6424;48.520;11.228;2024-01-15T14:13:01;6.20;;;4.53;;
12719;SDS011;6424;48.520;11.228;2024-01-15T14:15:46;4.83;;;3.90;;
12719;SDS011;6424;48.520;11.228;2024-01-15T14:18:32;5.60;;;4.40;;
12719;SDS011;6424;48.520;11.228;2024-01-15T14:21:16;5.80;;;4.90;;
12719;SDS011;6424;48.520;11.228;2024-01-15T14:24:01;7.53;;;3.93;;
12719;SDS011;6424;48.520;11.228;2024-01-15T14:26:45;5.53;;;4.30;;
12719;SDS011;6424;48.520;11.228;2024-01-15T14:29:29;7.13;;;4.57;;
12719;SDS011;6424;48.520;11.228;2024-01-15T14:32:13;6.90;;;4.63;;
12719;SDS011;6424;48.520;11.228;2024-01-15T14:34:58;8.50;;;5.10;;
12719;SDS011;6424;48.520;11.228;2024-01-15T14:37:42;10.50;;;5.33;;
12719;SDS011;6424;48.520;11.228;2024-01-15T14:40:27;5.50;;;4.57;;
12719;SDS011;6424;48.520;11.228;2024-01-15T14:43:11;7.73;;;5.00;;
12719;SDS011;6424;48.520;11.228;2024-01-15T14:45:56;8.80;;;5.80;;
12719;SDS011;6424;48.520;11.228;2024-01-15T14:48:41;7.93;;;5.10;;
12719;SDS011;6424;48.520;11.228;2024-01-15T14:51:25;6.63;;;4.83;;
12719;SDS011;6424;48.520;11.228;2024-01-15T14:54:10;8.10;;;5.30;;
12719;SDS011;6424;48.520;11.228;2024-01-15T14:56:54;7.80;;;5.30;;
12719;SDS011;6424;48.520;11.228;2024-01-15T14:59:40;7.53;;;5.20;;
12719;SDS011;6424;48.520;11.228;2024-01-15T15:02:25;8.60;;;5.43;;
12719;SDS011;6424;48.520;11.228;2024-01-15T15:05:11;7.77;;;4.83;;
12719;SDS011;6424;48.520;11.228;2024-01-15T15:07:56;8.60;;;5.40;;
12719;SDS011;6424;48.520;11.228;2024-01-15T15:10:40;8.00;;;5.80;;
12719;SDS011;6424;48.520;11.228;2024-01-15T15:13:25;9.60;;;5.53;;
12719;SDS011;6424;48.520;11.228;2024-01-15T15:16:10;9.47;;;6.50;;
12719;SDS011;6424;48.520;11.228;2024-01-15T15:18:54;8.20;;;5.43;;
12719;SDS011;6424;48.520;11.228;2024-01-15T15:21:39;7.73;;;5.50;;
12719;SDS011;6424;48.520;11.228;2024-01-15T15:24:23;8.37;;;5.70;;
12719;SDS011;6424;48.520;11.228;2024-01-15T15:27:07;8.93;;;5.73;;
12719;SDS011;6424;48.520;11.228;2024-01-15T15:29:51;7.17;;;5.17;;
12719;SDS011;6424;48.520;11.228;2024-01-15T15:32:36;11.40;;;5.23;;
12719;SDS011;6424;48.520;11.228;2024-01-15T15:35:20;8.37;;;4.83;;
12719;SDS011;6424;48.520;11.228;2024-01-15T15:38:04;9.23;;;4.90;;
12719;SDS011;6424;48.520;11.228;2024-01-15T15:40:49;7.73;;;4.87;;
12719;SDS011;6424;48.520;11.228;2024-01-15T15:43:33;10.60;;;6.40;;
12719;SDS011;6424;48.520;11.228;2024-01-15T15:46:18;6.30;;;4.47;;
12719;SDS011;6424;48.520;11.228;2024-01-15T15:49:02;8.00;;;4.73;;
12719;SDS011;6424;48.520;11.228;2024-01-15T15:51:50;5.77;;;4.23;;
12719;SDS011;6424;48.520;11.228;2024-01-15T15:54:34;6.23;;;4.60;;
12719;SDS011;6424;48.520;11.228;2024-01-15T15:57:19;7.13;;;5.07;;
12719;SDS011;6424;48.520;11.228;2024-01-15T16:00:05;6.37;;;4.70;;
12719;SDS011;6424;48.520;11.228;2024-01-15T16:02:50;7.67;;;5.80;;
12719;SDS011;6424;48.520;11.228;2024-01-15T16:05:34;8.73;;;5.83;;
12719;SDS011;6424;48.520;11.228;2024-01-15T16:08:18;12.83;;;6.77;;
12719;SDS011;6424;48.520;11.228;2024-01-15T16:11:03;7.80;;;5.30;;
12719;SDS011;6424;48.520;11.228;2024-01-15T16:13:47;7.67;;;5.03;;
12719;SDS011;6424;48.520;11.228;2024-01-15T16:16:31;5.67;;;4.13;;
12719;SDS011;6424;48.520;11.228;2024-01-15T16:19:16;5.53;;;4.40;;
12719;SDS011;6424;48.520;11.228;2024-01-15T16:22:00;8.90;;;6.13;;
12719;SDS011;6424;48.520;11.228;2024-01-15T16:24:45;7.23;;;5.57;;
12719;SDS011;6424;48.520;11.228;2024-01-15T16:27:29;10.80;;;6.97;;